sensor_id;sensor_type;location;lat;lon;timestamp;P1;durP1;ratioP1;P2;durP2;ratioP2
20727;SDS011;10525;50.154;8.198;2023-02-21T00:02:16;23.23;;;7.03;;
20727;SDS011;10525;50.154;8.198;2023-02-21T00:05:00;17.60;;;6.18;;
20727;SDS011;10525;50.154;8.198;2023-02-21T00:07:45;13.27;;;5.82;;
20727;SDS011;10525;50.154;8.198;2023-02-21T00:10:29;19.92;;;6.95;;
20727;SDS011;10525;50.154;8.198;2023-02-21T00:13:13;14.10;;;6.88;;
20727;SDS011;10525;50.154;8.198;2023-02-21T00:15:58;14.40;;;6.13;;
20727;SDS011;10525;50.154;8.198;2023-02-21T00:18:42;22.05;;;7.75;;
20727;SDS011;10525;50.154;8.198;2023-02-21T00:21:26;15.43;;;6.30;;
20727;SDS011;10525;50.154;8.198;2023-02-21T00:24:13;20.17;;;6.78;;
20727;SDS011;10525;50.154;8.198;2023-02-21T00:26:59;16.95;;;6.63;;
20727;SDS011;10525;50.154;8.198;2023-02-21T00:29:43;21.25;;;8.25;;
20727;SDS011;10525;50.154;8.198;2023-02-21T00:32:27;15.13;;;5.65;;
20727;SDS011;10525;50.154;8.198;2023-02-21T00:35:11;17.55;;;6.53;;
20727;SDS011;10525;50.154;8.198;2023-02-21T00:37:55;13.65;;;5.95;;
20727;SDS011;10525;50.154;8.198;2023-02-21T00:40:41;13.50;;;5.70;;
20727;SDS011;10525;50.154;8.198;2023-02-21T00:43:28;18.83;;;7.00;;
20727;SDS011;10525;50.154;8.198;2023-02-21T00:46:13;19.67;;;7.03;;
20727;SDS011;10525;50.154;8.198;2023-02-21T00:48:57;17.08;;;6.88;;
20727;SDS011;10525;50.154;8.198;2023-02-21T00:51:41;16.90;;;6.38;;
20727;SDS011;10525;50.154;8.198;2023-02-21T00:54:25;24.37;;;7.70;;
20727;SDS011;10525;50.154;8.198;2023-02-21T00:57:11;16.77;;;6.47;;
20727;SDS011;10525;50.154;8.198;2023-02-21T00:59:55;18.25;;;6.22;;
20727;SDS011;10525;50.154;8.198;2023-02-21T01:02:39;12.80;;;6.38;;
20727;SDS011;10525;50.154;8.198;2023-02-21T01:05:24;14.95;;;6.03;;
20727;SDS011;10525;50.154;8.198;2023-02-21T01:08:08;25.88;;;7.35;;
20727;SDS011;10525;50.154;8.198;2023-02-21T01:10:52;14.05;;;6.93;;
20727;SDS011;10525;50.154;8.198;2023-02-21T01:13:37;16.87;;;7.00;;
20727;SDS011;10525;50.154;8.198;2023-02-21T01:16:22;16.15;;;6.75;;
20727;SDS011;10525;50.154;8.198;2023-02-21T01:19:06;19.25;;;6.50;;
20727;SDS011;10525;50.154;8.198;2023-02-21T01:21:50;16.10;;;6.95;;
20727;SDS011;10525;50.154;8.198;2023-02-21T01:24:34;20.35;;;6.57;;
20727;SDS011;10525;50.154;8.198;2023-02-21T01:27:18;16.58;;;5.88;;
20727;SDS011;10525;50.154;8.198;2023-02-21T01:30:04;14.82;;;6.10;;
20727;SDS011;10525;50.154;8.198;2023-02-21T01:32:49;18.40;;;7.15;;
20727;SDS011;10525;50.154;8.198;2023-02-21T01:35:33;20.08;;;6.65;;
20727;SDS011;10525;50.154;8.198;2023-02-21T01:38:17;16.30;;;6.30;;
20727;SDS011;10525;50.154;8.198;2023-02-21T01:41:01;20.73;;;6.83;;
20727;SDS011;10525;50.154;8.198;2023-02-21T01:43:58;22.57;;;7.37;;
20727;SDS011;10525;50.154;8.198;2023-02-21T01:46:46;21.52;;;6.97;;
20727;SDS011;10525;50.154;8.198;2023-02-21T01:49:30;10.98;;;5.93;;
20727;SDS011;10525;50.154;8.198;2023-02-21T01:52:16;15.80;;;6.95;;
20727;SDS011;10525;50.154;8.198;2023-02-21T01:55:00;23.83;;;7.68;;
20727;SDS011;10525;50.154;8.198;2023-02-21T01:57:46;20.13;;;7.05;;
20727;SDS011;10525;50.154;8.198;2023-02-21T02:00:30;15.55;;;6.38;;
20727;SDS011;10525;50.154;8.198;2023-02-21T02:03:17;15.35;;;6.03;;
20727;SDS011;10525;50.154;8.198;2023-02-21T02:06:04;20.30;;;6.90;;
20727;SDS011;10525;50.154;8.198;2023-02-21T02:08:50;21.37;;;7.13;;
20727;SDS011;10525;50.154;8.198;2023-02-21T02:11:38;25.53;;;7.67;;
20727;SDS011;10525;50.154;8.198;2023-02-21T02:17:46;15.35;;;6.72;;
20727;SDS011;10525;50.154;8.198;2023-02-21T02:20:31;19.53;;;7.27;;
20727;SDS011;10525;50.154;8.198;2023-02-21T02:29:32;15.50;;;7.43;;
20727;SDS011;10525;50.154;8.198;2023-02-21T02:32:18;16.92;;;7.28;;
20727;SDS011;10525;50.154;8.198;2023-02-21T02:35:04;23.43;;;7.43;;
20727;SDS011;10525;50.154;8.198;2023-02-21T02:37:38;27.77;;;7.93;;
20727;SDS011;10525;50.154;8.198;2023-02-21T02:40:15;20.30;;;8.20;;
20727;SDS011;10525;50.154;8.198;2023-02-21T02:42:49;27.65;;;7.95;;
20727;SDS011;10525;50.154;8.198;2023-02-21T02:45:27;25.20;;;7.73;;
20727;SDS011;10525;50.154;8.198;2023-02-21T02:47:59;25.83;;;8.77;;
20727;SDS011;10525;50.154;8.198;2023-02-21T02:50:30;27.80;;;9.20;;
20727;SDS011;10525;50.154;8.198;2023-02-21T02:52:59;26.52;;;8.68;;
20727;SDS011;10525;50.154;8.198;2023-02-21T02:55:33;26.15;;;8.48;;
20727;SDS011;10525;50.154;8.198;2023-02-21T02:58:05;25.17;;;7.80;;
20727;SDS011;10525;50.154;8.198;2023-02-21T03:00:34;17.55;;;7.53;;
20727;SDS011;10525;50.154;8.198;2023-02-21T03:03:16;18.70;;;7.47;;
20727;SDS011;10525;50.154;8.198;2023-02-21T03:05:59;23.40;;;7.47;;
20727;SDS011;10525;50.154;8.198;2023-02-21T03:08:39;22.80;;;7.57;;
20727;SDS011;10525;50.154;8.198;2023-02-21T03:11:13;21.38;;;8.00;;
20727;SDS011;10525;50.154;8.198;2023-02-21T03:13:44;23.23;;;8.40;;
20727;SDS011;10525;50.154;8.198;2023-02-21T03:16:16;23.27;;;8.37;;
20727;SDS011;10525;50.154;8.198;2023-02-21T03:18:48;25.70;;;8.45;;
20727;SDS011;10525;50.154;8.198;2023-02-21T03:21:21;24.33;;;9.00;;
20727;SDS011;10525;50.154;8.198;2023-02-21T03:23:51;20.48;;;9.55;;
20727;SDS011;10525;50.154;8.198;2023-02-21T03:26:22;17.75;;;8.70;;
20727;SDS011;10525;50.154;8.198;2023-02-21T03:28:51;25.17;;;7.70;;
20727;SDS011;10525;50.154;8.198;2023-02-21T03:31:19;20.38;;;7.63;;
20727;SDS011;10525;50.154;8.198;2023-02-21T03:33:51;13.25;;;7.03;;
20727;SDS011;10525;50.154;8.198;2023-02-21T03:36:18;17.75;;;6.47;;
20727;SDS011;10525;50.154;8.198;2023-02-21T03:38:47;12.10;;;5.95;;
20727;SDS011;10525;50.154;8.198;2023-02-21T03:41:14;15.18;;;6.28;;
20727;SDS011;10525;50.154;8.198;2023-02-21T03:43:41;13.50;;;6.13;;
20727;SDS011;10525;50.154;8.198;2023-02-21T03:46:07;13.52;;;6.10;;
20727;SDS011;10525;50.154;8.198;2023-02-21T03:48:34;16.70;;;7.70;;
20727;SDS011;10525;50.154;8.198;2023-02-21T03:51:00;14.65;;;6.85;;
20727;SDS011;10525;50.154;8.198;2023-02-21T03:53:28;15.18;;;7.00;;
20727;SDS011;10525;50.154;8.198;2023-02-21T03:55:55;20.48;;;7.18;;
20727;SDS011;10525;50.154;8.198;2023-02-21T03:58:22;13.68;;;6.13;;
20727;SDS011;10525;50.154;8.198;2023-02-21T04:00:48;14.15;;;7.03;;
20727;SDS011;10525;50.154;8.198;2023-02-21T04:03:15;16.63;;;6.93;;
20727;SDS011;10525;50.154;8.198;2023-02-21T04:05:42;14.23;;;6.22;;
20727;SDS011;10525;50.154;8.198;2023-02-21T04:08:09;13.38;;;7.10;;
20727;SDS011;10525;50.154;8.198;2023-02-21T04:10:37;12.02;;;6.22;;
20727;SDS011;10525;50.154;8.198;2023-02-21T04:13:03;18.52;;;6.75;;
20727;SDS011;10525;50.154;8.198;2023-02-21T04:15:31;15.60;;;7.00;;
20727;SDS011;10525;50.154;8.198;2023-02-21T04:17:58;19.20;;;7.40;;
20727;SDS011;10525;50.154;8.198;2023-02-21T04:20:24;16.23;;;6.90;;
20727;SDS011;10525;50.154;8.198;2023-02-21T04:22:51;14.77;;;6.72;;
20727;SDS011;10525;50.154;8.198;2023-02-21T04:25:17;20.83;;;7.13;;
20727;SDS011;10525;50.154;8.198;2023-02-21T04:27:46;16.20;;;7.97;;
20727;SDS011;10525;50.154;8.198;2023-02-21T04:30:12;17.60;;;7.22;;
20727;SDS011;10525;50.154;8.198;2023-02-21T04:32:39;13.70;;;6.90;;
20727;SDS011;10525;50.154;8.198;2023-02-21T04:35:06;19.05;;;7.70;;
20727;SDS011;10525;50.154;8.198;2023-02-21T04:37:32;15.60;;;6.65;;
20727;SDS011;10525;50.154;8.198;2023-02-21T04:39:59;12.40;;;6.50;;
20727;SDS011;10525;50.154;8.198;2023-02-21T04:42:26;16.42;;;7.18;;
20727;SDS011;10525;50.154;8.198;2023-02-21T04:44:54;18.27;;;7.70;;
20727;SDS011;10525;50.154;8.198;2023-02-21T04:47:21;15.50;;;7.28;;
20727;SDS011;10525;50.154;8.198;2023-02-21T04:49:47;15.10;;;7.65;;
20727;SDS011;10525;50.154;8.198;2023-02-21T04:52:15;27.23;;;7.55;;
20727;SDS011;10525;50.154;8.198;2023-02-21T04:54:44;18.70;;;7.45;;
20727;SDS011;10525;50.154;8.198;2023-02-21T04:57:11;17.42;;;7.18;;
20727;SDS011;10525;50.154;8.198;2023-02-21T04:59:38;16.52;;;7.38;;
20727;SDS011;10525;50.154;8.198;2023-02-21T05:02:06;21.02;;;7.88;;
20727;SDS011;10525;50.154;8.198;2023-02-21T05:04:32;19.73;;;7.30;;
20727;SDS011;10525;50.154;8.198;2023-02-21T05:06:59;29.15;;;8.60;;
20727;SDS011;10525;50.154;8.198;2023-02-21T05:09:26;23.17;;;7.57;;
20727;SDS011;10525;50.154;8.198;2023-02-21T05:11:52;20.85;;;7.82;;
20727;SDS011;10525;50.154;8.198;2023-02-21T05:14:19;21.43;;;8.77;;
20727;SDS011;10525;50.154;8.198;2023-02-21T05:16:45;21.85;;;7.03;;
20727;SDS011;10525;50.154;8.198;2023-02-21T05:19:16;26.77;;;8.10;;
20727;SDS011;10525;50.154;8.198;2023-02-21T05:21:51;25.83;;;8.23;;
20727;SDS011;10525;50.154;8.198;2023-02-21T05:24:19;24.73;;;8.23;;
20727;SDS011;10525;50.154;8.198;2023-02-21T05:26:45;20.50;;;8.47;;
20727;SDS011;10525;50.154;8.198;2023-02-21T05:29:12;20.20;;;7.73;;
20727;SDS011;10525;50.154;8.198;2023-02-21T05:31:39;28.53;;;8.47;;
20727;SDS011;10525;50.154;8.198;2023-02-21T05:34:05;22.77;;;8.70;;
20727;SDS011;10525;50.154;8.198;2023-02-21T05:36:33;24.47;;;8.90;;
20727;SDS011;10525;50.154;8.198;2023-02-21T05:39:00;23.73;;;8.77;;
20727;SDS011;10525;50.154;8.198;2023-02-21T05:41:27;25.27;;;8.33;;
20727;SDS011;10525;50.154;8.198;2023-02-21T05:43:53;28.27;;;8.63;;
20727;SDS011;10525;50.154;8.198;2023-02-21T05:46:22;25.87;;;8.27;;
20727;SDS011;10525;50.154;8.198;2023-02-21T05:48:51;26.13;;;9.00;;
20727;SDS011;10525;50.154;8.198;2023-02-21T05:51:18;23.70;;;8.17;;
20727;SDS011;10525;50.154;8.198;2023-02-21T05:53:46;26.63;;;8.83;;
20727;SDS011;10525;50.154;8.198;2023-02-21T05:56:13;21.30;;;7.90;;
20727;SDS011;10525;50.154;8.198;2023-02-21T05:58:40;17.77;;;7.37;;
20727;SDS011;10525;50.154;8.198;2023-02-21T06:01:07;26.20;;;9.03;;
20727;SDS011;10525;50.154;8.198;2023-02-21T06:03:34;18.90;;;7.60;;
20727;SDS011;10525;50.154;8.198;2023-02-21T06:06:01;27.10;;;8.60;;
20727;SDS011;10525;50.154;8.198;2023-02-21T06:08:28;22.17;;;7.80;;
20727;SDS011;10525;50.154;8.198;2023-02-21T06:10:56;25.40;;;7.63;;
20727;SDS011;10525;50.154;8.198;2023-02-21T06:13:22;23.90;;;7.47;;
20727;SDS011;10525;50.154;8.198;2023-02-21T06:15:49;20.40;;;7.17;;
20727;SDS011;10525;50.154;8.198;2023-02-21T06:18:16;18.27;;;7.20;;
20727;SDS011;10525;50.154;8.198;2023-02-21T06:20:42;27.23;;;8.60;;
20727;SDS011;10525;50.154;8.198;2023-02-21T06:23:09;22.23;;;8.23;;
20727;SDS011;10525;50.154;8.198;2023-02-21T06:25:36;25.53;;;8.40;;
20727;SDS011;10525;50.154;8.198;2023-02-21T06:28:04;21.77;;;7.77;;
20727;SDS011;10525;50.154;8.198;2023-02-21T06:30:31;28.70;;;8.43;;
20727;SDS011;10525;50.154;8.198;2023-02-21T06:32:57;22.83;;;8.67;;
20727;SDS011;10525;50.154;8.198;2023-02-21T06:35:24;21.43;;;7.67;;
20727;SDS011;10525;50.154;8.198;2023-02-21T06:37:51;25.03;;;8.73;;
20727;SDS011;10525;50.154;8.198;2023-02-21T06:40:17;21.87;;;8.27;;
20727;SDS011;10525;50.154;8.198;2023-02-21T06:42:44;23.25;;;9.35;;
20727;SDS011;10525;50.154;8.198;2023-02-21T06:45:12;24.38;;;8.35;;
20727;SDS011;10525;50.154;8.198;2023-02-21T06:47:39;18.70;;;7.47;;
20727;SDS011;10525;50.154;8.198;2023-02-21T06:50:06;15.60;;;7.30;;
20727;SDS011;10525;50.154;8.198;2023-02-21T06:52:32;16.77;;;7.35;;
20727;SDS011;10525;50.154;8.198;2023-02-21T06:54:59;18.67;;;7.50;;
20727;SDS011;10525;50.154;8.198;2023-02-21T06:57:26;20.83;;;7.40;;
20727;SDS011;10525;50.154;8.198;2023-02-21T06:59:52;20.90;;;7.30;;
20727;SDS011;10525;50.154;8.198;2023-02-21T07:02:20;19.60;;;6.65;;
20727;SDS011;10525;50.154;8.198;2023-02-21T07:04:47;14.35;;;7.18;;
20727;SDS011;10525;50.154;8.198;2023-02-21T07:07:14;18.63;;;6.85;;
20727;SDS011;10525;50.154;8.198;2023-02-21T07:09:41;19.77;;;7.32;;
20727;SDS011;10525;50.154;8.198;2023-02-21T07:12:08;12.02;;;6.13;;
20727;SDS011;10525;50.154;8.198;2023-02-21T07:14:34;13.18;;;6.20;;
20727;SDS011;10525;50.154;8.198;2023-02-21T07:17:01;11.35;;;5.78;;
20727;SDS011;10525;50.154;8.198;2023-02-21T07:19:29;10.43;;;6.60;;
20727;SDS011;10525;50.154;8.198;2023-02-21T07:21:56;17.67;;;6.60;;
20727;SDS011;10525;50.154;8.198;2023-02-21T07:24:23;14.52;;;6.72;;
20727;SDS011;10525;50.154;8.198;2023-02-21T07:26:49;17.65;;;6.72;;
20727;SDS011;10525;50.154;8.198;2023-02-21T07:29:16;19.00;;;7.40;;
20727;SDS011;10525;50.154;8.198;2023-02-21T07:31:43;17.02;;;7.88;;
20727;SDS011;10525;50.154;8.198;2023-02-21T07:34:09;16.13;;;7.38;;
20727;SDS011;10525;50.154;8.198;2023-02-21T07:36:38;23.95;;;7.88;;
20727;SDS011;10525;50.154;8.198;2023-02-21T07:39:05;17.15;;;7.18;;
20727;SDS011;10525;50.154;8.198;2023-02-21T07:41:31;16.42;;;7.38;;
20727;SDS011;10525;50.154;8.198;2023-02-21T07:43:58;19.13;;;7.78;;
20727;SDS011;10525;50.154;8.198;2023-02-21T07:46:26;17.52;;;8.15;;
20727;SDS011;10525;50.154;8.198;2023-02-21T07:48:53;16.08;;;8.02;;
20727;SDS011;10525;50.154;8.198;2023-02-21T07:51:20;19.65;;;8.45;;
20727;SDS011;10525;50.154;8.198;2023-02-21T07:53:48;19.50;;;7.65;;
20727;SDS011;10525;50.154;8.198;2023-02-21T07:56:15;16.45;;;6.82;;
20727;SDS011;10525;50.154;8.198;2023-02-21T07:58:41;19.95;;;8.50;;
20727;SDS011;10525;50.154;8.198;2023-02-21T08:01:08;22.45;;;9.32;;
20727;SDS011;10525;50.154;8.198;2023-02-21T08:03:35;16.45;;;7.95;;
20727;SDS011;10525;50.154;8.198;2023-02-21T08:06:02;15.90;;;7.72;;
20727;SDS011;10525;50.154;8.198;2023-02-21T08:08:29;19.02;;;7.63;;
20727;SDS011;10525;50.154;8.198;2023-02-21T08:10:57;24.17;;;8.68;;
20727;SDS011;10525;50.154;8.198;2023-02-21T08:13:24;18.48;;;8.30;;
20727;SDS011;10525;50.154;8.198;2023-02-21T08:15:51;22.60;;;10.05;;
20727;SDS011;10525;50.154;8.198;2023-02-21T08:18:18;39.95;;;15.63;;
20727;SDS011;10525;50.154;8.198;2023-02-21T08:20:48;24.65;;;10.80;;
20727;SDS011;10525;50.154;8.198;2023-02-21T08:23:14;27.23;;;10.73;;
20727;SDS011;10525;50.154;8.198;2023-02-21T08:25:42;30.02;;;10.00;;
20727;SDS011;10525;50.154;8.198;2023-02-21T08:28:10;19.60;;;9.18;;
20727;SDS011;10525;50.154;8.198;2023-02-21T08:30:37;21.08;;;9.27;;
20727;SDS011;10525;50.154;8.198;2023-02-21T08:33:04;21.35;;;9.85;;
20727;SDS011;10525;50.154;8.198;2023-02-21T08:35:30;21.10;;;9.68;;
20727;SDS011;10525;50.154;8.198;2023-02-21T08:37:57;25.10;;;10.00;;
20727;SDS011;10525;50.154;8.198;2023-02-21T08:40:27;28.23;;;10.07;;
20727;SDS011;10525;50.154;8.198;2023-02-21T08:42:55;16.95;;;8.55;;
20727;SDS011;10525;50.154;8.198;2023-02-21T08:45:25;24.30;;;9.32;;
20727;SDS011;10525;50.154;8.198;2023-02-21T08:47:53;17.88;;;9.18;;
20727;SDS011;10525;50.154;8.198;2023-02-21T08:50:24;22.75;;;11.35;;
20727;SDS011;10525;50.154;8.198;2023-02-21T08:52:52;21.80;;;10.15;;
20727;SDS011;10525;50.154;8.198;2023-02-21T08:55:19;22.33;;;10.82;;
20727;SDS011;10525;50.154;8.198;2023-02-21T08:57:46;22.92;;;10.20;;
20727;SDS011;10525;50.154;8.198;2023-02-21T09:00:14;22.60;;;9.85;;
20727;SDS011;10525;50.154;8.198;2023-02-21T09:02:43;24.30;;;10.70;;
20727;SDS011;10525;50.154;8.198;2023-02-21T09:05:10;22.33;;;10.00;;
20727;SDS011;10525;50.154;8.198;2023-02-21T09:07:38;20.17;;;9.15;;
20727;SDS011;10525;50.154;8.198;2023-02-21T09:10:05;26.85;;;10.27;;
20727;SDS011;10525;50.154;8.198;2023-02-21T09:12:34;19.77;;;10.18;;
20727;SDS011;10525;50.154;8.198;2023-02-21T09:15:01;20.95;;;8.95;;
20727;SDS011;10525;50.154;8.198;2023-02-21T09:17:28;15.52;;;8.10;;
20727;SDS011;10525;50.154;8.198;2023-02-21T09:19:59;20.05;;;8.45;;
20727;SDS011;10525;50.154;8.198;2023-02-21T09:22:26;18.42;;;7.65;;
20727;SDS011;10525;50.154;8.198;2023-02-21T09:24:53;18.25;;;8.20;;
20727;SDS011;10525;50.154;8.198;2023-02-21T09:27:20;25.80;;;10.73;;
20727;SDS011;10525;50.154;8.198;2023-02-21T09:30:00;26.15;;;11.05;;
20727;SDS011;10525;50.154;8.198;2023-02-21T09:32:27;22.35;;;10.50;;
20727;SDS011;10525;50.154;8.198;2023-02-21T09:34:54;21.23;;;8.60;;
20727;SDS011;10525;50.154;8.198;2023-02-21T09:37:22;18.30;;;7.75;;
20727;SDS011;10525;50.154;8.198;2023-02-21T09:39:49;13.85;;;7.00;;
20727;SDS011;10525;50.154;8.198;2023-02-21T09:42:15;15.48;;;7.05;;
20727;SDS011;10525;50.154;8.198;2023-02-21T09:44:43;17.13;;;7.78;;
20727;SDS011;10525;50.154;8.198;2023-02-21T09:47:12;13.85;;;6.65;;
20727;SDS011;10525;50.154;8.198;2023-02-21T09:49:43;15.10;;;7.20;;
20727;SDS011;10525;50.154;8.198;2023-02-21T09:52:14;14.05;;;7.28;;
20727;SDS011;10525;50.154;8.198;2023-02-21T09:54:49;15.63;;;6.70;;
20727;SDS011;10525;50.154;8.198;2023-02-21T09:57:21;15.40;;;6.45;;
20727;SDS011;10525;50.154;8.198;2023-02-21T09:59:48;10.52;;;6.35;;
20727;SDS011;10525;50.154;8.198;2023-02-21T10:02:19;10.63;;;6.07;;
20727;SDS011;10525;50.154;8.198;2023-02-21T10:05:06;18.35;;;6.57;;
20727;SDS011;10525;50.154;8.198;2023-02-21T10:07:42;12.38;;;6.70;;
20727;SDS011;10525;50.154;8.198;2023-02-21T10:10:15;10.48;;;5.60;;
20727;SDS011;10525;50.154;8.198;2023-02-21T10:12:45;9.27;;;5.45;;
20727;SDS011;10525;50.154;8.198;2023-02-21T10:15:20;9.27;;;5.75;;
20727;SDS011;10525;50.154;8.198;2023-02-21T10:18:02;10.40;;;5.13;;
20727;SDS011;10525;50.154;8.198;2023-02-21T10:20:34;12.13;;;5.30;;
20727;SDS011;10525;50.154;8.198;2023-02-21T10:23:04;7.70;;;5.40;;
20727;SDS011;10525;50.154;8.198;2023-02-21T10:25:41;9.32;;;5.10;;
20727;SDS011;10525;50.154;8.198;2023-02-21T10:28:12;11.70;;;5.95;;
20727;SDS011;10525;50.154;8.198;2023-02-21T10:30:43;11.10;;;5.00;;
20727;SDS011;10525;50.154;8.198;2023-02-21T10:33:11;9.77;;;4.28;;
20727;SDS011;10525;50.154;8.198;2023-02-21T10:35:38;6.70;;;4.65;;
20727;SDS011;10525;50.154;8.198;2023-02-21T10:38:05;4.32;;;3.92;;
20727;SDS011;10525;50.154;8.198;2023-02-21T10:40:36;4.85;;;3.70;;
20727;SDS011;10525;50.154;8.198;2023-02-21T10:43:08;12.27;;;4.00;;
20727;SDS011;10525;50.154;8.198;2023-02-21T10:45:39;6.75;;;4.38;;
20727;SDS011;10525;50.154;8.198;2023-02-21T10:48:10;6.30;;;4.07;;
20727;SDS011;10525;50.154;8.198;2023-02-21T10:50:39;8.70;;;3.92;;
20727;SDS011;10525;50.154;8.198;2023-02-21T10:53:09;5.35;;;3.83;;
20727;SDS011;10525;50.154;8.198;2023-02-21T10:58:56;7.03;;;4.32;;
20727;SDS011;10525;50.154;8.198;2023-02-21T11:01:31;7.68;;;4.30;;
20727;SDS011;10525;50.154;8.198;2023-02-21T11:04:01;8.70;;;4.80;;
20727;SDS011;10525;50.154;8.198;2023-02-21T11:06:32;8.23;;;4.82;;
20727;SDS011;10525;50.154;8.198;2023-02-21T11:09:00;6.75;;;4.85;;
20727;SDS011;10525;50.154;8.198;2023-02-21T11:11:47;7.53;;;4.78;;
20727;SDS011;10525;50.154;8.198;2023-02-21T11:14:27;9.18;;;4.90;;
20727;SDS011;10525;50.154;8.198;2023-02-21T11:17:10;8.90;;;5.32;;
20727;SDS011;10525;50.154;8.198;2023-02-21T11:19:43;8.07;;;4.95;;
20727;SDS011;10525;50.154;8.198;2023-02-21T11:22:14;8.25;;;4.65;;
20727;SDS011;10525;50.154;8.198;2023-02-21T11:24:44;6.05;;;4.70;;
20727;SDS011;10525;50.154;8.198;2023-02-21T11:27:20;12.13;;;4.68;;
20727;SDS011;10525;50.154;8.198;2023-02-21T11:29:49;5.40;;;4.85;;
20727;SDS011;10525;50.154;8.198;2023-02-21T11:32:23;13.65;;;5.60;;
20727;SDS011;10525;50.154;8.198;2023-02-21T11:34:59;7.70;;;4.68;;
20727;SDS011;10525;50.154;8.198;2023-02-21T11:37:31;6.40;;;4.68;;
20727;SDS011;10525;50.154;8.198;2023-02-21T11:39:58;5.55;;;4.18;;
20727;SDS011;10525;50.154;8.198;2023-02-21T11:42:31;7.28;;;3.90;;
20727;SDS011;10525;50.154;8.198;2023-02-21T11:45:14;6.15;;;4.25;;
20727;SDS011;10525;50.154;8.198;2023-02-21T11:47:49;7.55;;;4.45;;
20727;SDS011;10525;50.154;8.198;2023-02-21T11:50:23;6.30;;;4.28;;
20727;SDS011;10525;50.154;8.198;2023-02-21T11:52:53;10.15;;;4.40;;
20727;SDS011;10525;50.154;8.198;2023-02-21T11:55:26;4.15;;;3.85;;
20727;SDS011;10525;50.154;8.198;2023-02-21T11:58:02;7.10;;;4.65;;
20727;SDS011;10525;50.154;8.198;2023-02-21T12:00:41;4.65;;;4.20;;
20727;SDS011;10525;50.154;8.198;2023-02-21T12:03:38;5.60;;;4.65;;
20727;SDS011;10525;50.154;8.198;2023-02-21T12:06:15;8.98;;;4.43;;
20727;SDS011;10525;50.154;8.198;2023-02-21T12:08:54;6.30;;;4.53;;
20727;SDS011;10525;50.154;8.198;2023-02-21T12:11:40;8.82;;;4.35;;
20727;SDS011;10525;50.154;8.198;2023-02-21T12:14:17;7.57;;;4.90;;
20727;SDS011;10525;50.154;8.198;2023-02-21T12:16:58;8.82;;;5.20;;
20727;SDS011;10525;50.154;8.198;2023-02-21T12:19:36;8.15;;;5.05;;
20727;SDS011;10525;50.154;8.198;2023-02-21T12:22:15;6.05;;;4.55;;
20727;SDS011;10525;50.154;8.198;2023-02-21T12:24:55;8.63;;;4.95;;
20727;SDS011;10525;50.154;8.198;2023-02-21T12:27:33;8.40;;;5.63;;
20727;SDS011;10525;50.154;8.198;2023-02-21T12:30:15;10.20;;;4.75;;
20727;SDS011;10525;50.154;8.198;2023-02-21T12:32:53;7.40;;;5.45;;
20727;SDS011;10525;50.154;8.198;2023-02-21T12:38:28;10.90;;;5.53;;
20727;SDS011;10525;50.154;8.198;2023-02-21T12:41:00;14.13;;;6.35;;
20727;SDS011;10525;50.154;8.198;2023-02-21T12:43:44;7.65;;;5.00;;
20727;SDS011;10525;50.154;8.198;2023-02-21T12:46:20;8.95;;;4.75;;
20727;SDS011;10525;50.154;8.198;2023-02-21T12:48:55;11.30;;;4.85;;
20727;SDS011;10525;50.154;8.198;2023-02-21T12:51:30;14.85;;;4.70;;
20727;SDS011;10525;50.154;8.198;2023-02-21T12:54:01;6.93;;;4.43;;
20727;SDS011;10525;50.154;8.198;2023-02-21T12:56:31;6.72;;;4.57;;
20727;SDS011;10525;50.154;8.198;2023-02-21T12:59:05;12.75;;;6.13;;
20727;SDS011;10525;50.154;8.198;2023-02-21T13:01:39;7.65;;;4.50;;
20727;SDS011;10525;50.154;8.198;2023-02-21T13:04:14;14.48;;;7.30;;
20727;SDS011;10525;50.154;8.198;2023-02-21T13:06:48;8.13;;;5.68;;
20727;SDS011;10525;50.154;8.198;2023-02-21T13:09:20;7.97;;;5.43;;
20727;SDS011;10525;50.154;8.198;2023-02-21T13:11:54;8.98;;;5.43;;
20727;SDS011;10525;50.154;8.198;2023-02-21T13:14:26;8.10;;;5.28;;
20727;SDS011;10525;50.154;8.198;2023-02-21T13:16:57;5.50;;;4.60;;
20727;SDS011;10525;50.154;8.198;2023-02-21T13:19:25;8.65;;;5.13;;
20727;SDS011;10525;50.154;8.198;2023-02-21T13:22:04;9.25;;;5.13;;
20727;SDS011;10525;50.154;8.198;2023-02-21T13:24:54;8.45;;;5.03;;
20727;SDS011;10525;50.154;8.198;2023-02-21T13:27:42;5.78;;;4.72;;
20727;SDS011;10525;50.154;8.198;2023-02-21T13:30:19;7.43;;;4.70;;
20727;SDS011;10525;50.154;8.198;2023-02-21T13:32:49;11.43;;;6.20;;
20727;SDS011;10525;50.154;8.198;2023-02-21T13:35:20;11.43;;;5.28;;
20727;SDS011;10525;50.154;8.198;2023-02-21T13:37:52;7.05;;;5.35;;
20727;SDS011;10525;50.154;8.198;2023-02-21T13:40:20;17.52;;;6.18;;
20727;SDS011;10525;50.154;8.198;2023-02-21T13:42:59;9.05;;;6.10;;
20727;SDS011;10525;50.154;8.198;2023-02-21T13:45:30;8.40;;;5.82;;
20727;SDS011;10525;50.154;8.198;2023-02-21T13:48:20;14.27;;;5.82;;
20727;SDS011;10525;50.154;8.198;2023-02-21T13:50:51;9.35;;;6.30;;
20727;SDS011;10525;50.154;8.198;2023-02-21T13:53:20;12.40;;;6.82;;
20727;SDS011;10525;50.154;8.198;2023-02-21T13:58:38;9.65;;;6.45;;
20727;SDS011;10525;50.154;8.198;2023-02-21T14:07:42;14.20;;;7.07;;
20727;SDS011;10525;50.154;8.198;2023-02-21T14:10:16;16.38;;;7.68;;
20727;SDS011;10525;50.154;8.198;2023-02-21T14:12:53;14.18;;;7.57;;
20727;SDS011;10525;50.154;8.198;2023-02-21T14:15:22;14.35;;;6.70;;
20727;SDS011;10525;50.154;8.198;2023-02-21T14:17:49;10.95;;;7.15;;
20727;SDS011;10525;50.154;8.198;2023-02-21T14:20:18;14.43;;;7.65;;
20727;SDS011;10525;50.154;8.198;2023-02-21T14:22:49;20.02;;;7.93;;
20727;SDS011;10525;50.154;8.198;2023-02-21T14:25:18;16.23;;;7.60;;
20727;SDS011;10525;50.154;8.198;2023-02-21T14:27:48;15.23;;;7.78;;
20727;SDS011;10525;50.154;8.198;2023-02-21T14:30:30;12.13;;;7.07;;
20727;SDS011;10525;50.154;8.198;2023-02-21T14:33:10;12.48;;;7.88;;
20727;SDS011;10525;50.154;8.198;2023-02-21T14:35:47;18.17;;;7.50;;
20727;SDS011;10525;50.154;8.198;2023-02-21T14:38:24;14.65;;;7.45;;
20727;SDS011;10525;50.154;8.198;2023-02-21T14:40:56;11.25;;;6.50;;
20727;SDS011;10525;50.154;8.198;2023-02-21T14:43:46;28.67;;;8.00;;
20727;SDS011;10525;50.154;8.198;2023-02-21T14:46:31;11.57;;;7.15;;
20727;SDS011;10525;50.154;8.198;2023-02-21T14:49:14;15.00;;;7.50;;
20727;SDS011;10525;50.154;8.198;2023-02-21T14:52:01;14.20;;;7.57;;
20727;SDS011;10525;50.154;8.198;2023-02-21T14:58:00;13.68;;;7.28;;
20727;SDS011;10525;50.154;8.198;2023-02-21T15:00:53;15.00;;;7.63;;
20727;SDS011;10525;50.154;8.198;2023-02-21T15:03:30;13.32;;;7.10;;
20727;SDS011;10525;50.154;8.198;2023-02-21T15:06:02;15.02;;;7.00;;
20727;SDS011;10525;50.154;8.198;2023-02-21T15:08:39;10.85;;;7.00;;
20727;SDS011;10525;50.154;8.198;2023-02-21T15:11:17;13.18;;;7.50;;
20727;SDS011;10525;50.154;8.198;2023-02-21T15:16:39;17.25;;;7.15;;
20727;SDS011;10525;50.154;8.198;2023-02-21T15:19:17;14.50;;;6.75;;
20727;SDS011;10525;50.154;8.198;2023-02-21T15:21:46;15.02;;;7.18;;
20727;SDS011;10525;50.154;8.198;2023-02-21T15:24:14;13.82;;;7.78;;
20727;SDS011;10525;50.154;8.198;2023-02-21T15:26:43;13.27;;;8.00;;
20727;SDS011;10525;50.154;8.198;2023-02-21T15:29:10;13.45;;;7.57;;
20727;SDS011;10525;50.154;8.198;2023-02-21T15:31:39;14.05;;;7.80;;
20727;SDS011;10525;50.154;8.198;2023-02-21T15:34:13;13.90;;;7.25;;
20727;SDS011;10525;50.154;8.198;2023-02-21T15:36:43;14.98;;;7.38;;
20727;SDS011;10525;50.154;8.198;2023-02-21T15:39:11;14.95;;;7.38;;
20727;SDS011;10525;50.154;8.198;2023-02-21T15:41:47;10.88;;;6.00;;